createdAt,value
2018-01-05T00:00:25.780Z,19.86
2018-01-05T00:05:25.757Z,19.86
2018-01-05T00:10:25.681Z,19.75
2018-01-05T00:15:25.552Z,19.64
2018-01-05T00:20:25.486Z,19.65
2018-01-05T00:25:25.417Z,19.55
2018-01-05T00:30:25.102Z,19.45
2018-01-05T00:35:25.286Z,19.47
2018-01-05T00:40:25.226Z,19.56
2018-01-05T00:45:25.150Z,19.45
2018-01-05T00:50:25.104Z,19.4
2018-01-05T00:55:25.018Z,19.34
2018-01-05T01:00:24.948Z,19.28
2018-01-05T01:05:24.881Z,19.25
2018-01-05T01:10:24.812Z,19.2
2018-01-05T01:15:24.735Z,19.27
2018-01-05T01:20:24.676Z,19.15
2018-01-05T01:25:24.649Z,19
2018-01-05T01:30:24.526Z,18.9
2018-01-05T01:35:24.450Z,18.86
2018-01-05T01:40:24.384Z,18.76
2018-01-05T01:45:24.321Z,18.75
2018-01-05T01:50:24.243Z,18.72
2018-01-05T01:55:24.170Z,18.72
2018-01-05T02:00:24.246Z,18.74
2018-01-05T02:05:24.040Z,18.6
2018-01-05T02:10:23.959Z,18.59
2018-01-05T02:15:23.890Z,18.54
2018-01-05T02:20:23.831Z,18.57
2018-01-05T02:25:23.760Z,18.57
2018-01-05T02:30:23.708Z,18.47
2018-01-05T02:35:23.615Z,18.41
2018-01-05T02:40:23.546Z,18.44
2018-01-05T02:45:23.465Z,18.38
2018-01-05T02:50:23.478Z,18.42
2018-01-05T02:55:23.358Z,18.29
2018-01-05T03:00:23.279Z,18.34
2018-01-05T03:05:23.182Z,18.31
2018-01-05T03:10:23.119Z,18.21
2018-01-05T03:15:22.805Z,18.21
2018-01-05T03:20:22.981Z,18.23
2018-01-05T03:25:22.913Z,18.21
2018-01-05T03:30:22.849Z,18.24
2018-01-05T03:35:22.785Z,18.2
2018-01-05T03:40:22.685Z,18.17
2018-01-05T03:45:22.641Z,18.23
2018-01-05T03:50:22.545Z,18.13
2018-01-05T03:55:22.521Z,18.19
2018-01-05T04:00:22.183Z,18.1
2018-01-05T04:05:22.330Z,18.16
2018-01-05T04:10:22.258Z,18.14
2018-01-05T04:15:22.204Z,18.11
2018-01-05T04:20:22.111Z,18.17
2018-01-05T04:25:22.040Z,18.05
2018-01-05T04:30:21.988Z,18.03
2018-01-05T04:35:21.864Z,18.05
2018-01-05T04:40:21.804Z,17.99
2018-01-05T04:45:21.714Z,17.96
2018-01-05T04:50:21.649Z,17.95
2018-01-05T04:55:21.575Z,17.86
2018-01-05T05:00:21.553Z,17.8
2018-01-05T05:05:21.414Z,17.79
2018-01-05T05:10:21.340Z,17.83
2018-01-05T05:15:21.250Z,17.69
2018-01-05T05:20:21.170Z,17.65
2018-01-05T05:25:21.106Z,17.62
2018-01-05T05:30:21.017Z,17.68
2018-01-05T05:35:20.940Z,17.71
2018-01-05T05:40:20.861Z,17.63
2018-01-05T05:45:20.794Z,17.63
2018-01-05T05:50:20.697Z,17.6
2018-01-05T05:55:20.621Z,17.57
2018-01-05T06:00:20.567Z,17.58
2018-01-05T06:05:20.516Z,17.54
2018-01-05T06:10:20.399Z,17.54
2018-01-05T06:15:20.309Z,17.6
2018-01-05T06:20:20.027Z,17.45
2018-01-05T06:25:20.164Z,17.5
2018-01-05T06:30:20.069Z,17.55
2018-01-05T06:35:19.991Z,17.49
2018-01-05T06:40:19.909Z,17.49
2018-01-05T06:45:19.823Z,17.42
2018-01-05T06:50:19.756Z,17.4
2018-01-05T06:55:19.730Z,17.46
2018-01-05T07:00:19.622Z,17.65
2018-01-05T07:05:19.524Z,17.68
2018-01-05T07:10:19.481Z,17.92
2018-01-05T07:15:19.359Z,18.14
2018-01-05T07:20:19.326Z,18.24
2018-01-05T07:25:19.305Z,18.36
2018-01-05T07:30:19.134Z,18.49
2018-01-05T07:35:19.071Z,18.56
2018-01-05T07:40:18.991Z,18.71
2018-01-05T07:45:18.923Z,18.81
2018-01-05T07:50:18.881Z,18.78
2018-01-05T07:55:18.835Z,18.78
2018-01-05T08:00:18.720Z,18.76
2018-01-05T08:05:18.645Z,18.72
2018-01-05T08:10:18.571Z,18.81
2018-01-05T08:15:18.499Z,18.74
2018-01-05T08:20:18.467Z,18.76
2018-01-05T08:25:18.388Z,18.75
2018-01-05T08:30:18.295Z,18.71
2018-01-05T08:35:18.204Z,18.71
2018-01-05T08:40:18.140Z,18.74
2018-01-05T08:45:18.057Z,18.76
2018-01-05T08:50:18.080Z,18.72
2018-01-05T08:55:17.911Z,18.75
2018-01-05T09:00:17.850Z,18.81
2018-01-05T09:05:17.786Z,18.76
2018-01-05T09:10:17.689Z,18.78
2018-01-05T09:15:17.628Z,18.86
2018-01-05T09:20:17.548Z,18.87
2018-01-05T09:25:17.477Z,18.9
2018-01-05T09:30:17.431Z,18.93
2018-01-05T09:35:17.352Z,18.97
2018-01-05T09:40:17.278Z,18.97
2018-01-05T09:45:17.244Z,18.91
2018-01-05T09:50:17.120Z,18.93
2018-01-05T09:55:17.058Z,18.9
2018-01-05T10:00:16.992Z,18.9
2018-01-05T10:05:16.915Z,18.75
2018-01-05T10:10:16.931Z,18.71
2018-01-05T10:15:16.784Z,18.78
2018-01-05T10:20:16.710Z,18.81
2018-01-05T10:25:16.632Z,18.79
2018-01-05T10:30:16.580Z,18.82
2018-01-05T10:35:16.533Z,18.87
2018-01-05T10:40:16.436Z,18.89
2018-01-05T10:45:16.357Z,18.87
2018-01-05T10:50:16.282Z,18.81
2018-01-05T10:55:16.236Z,18.78
2018-01-05T11:00:16.161Z,18.79
2018-01-05T11:05:16.159Z,18.82
2018-01-05T11:10:15.999Z,18.75
2018-01-05T11:15:15.918Z,18.84
2018-01-05T11:20:15.847Z,18.93
2018-01-05T11:25:15.779Z,18.81
2018-01-05T11:30:15.699Z,18.78
2018-01-05T11:35:15.676Z,18.81
2018-01-05T11:40:15.569Z,18.79
2018-01-05T11:45:15.489Z,18.79
2018-01-05T11:50:15.415Z,18.84
2018-01-05T11:55:15.352Z,18.81
2018-01-05T12:00:15.271Z,18.93
2018-01-05T12:05:15.211Z,18.87
2018-01-05T12:10:15.172Z,18.81
2018-01-05T12:15:15.063Z,18.68
2018-01-05T12:20:15.004Z,18.63
2018-01-05T12:25:14.949Z,18.54
2018-01-05T12:30:14.597Z,18.5
2018-01-05T12:35:14.816Z,18.51
2018-01-05T12:40:14.708Z,18.66
2018-01-05T12:45:14.653Z,18.71
2018-01-05T12:50:14.569Z,18.82
2018-01-05T12:55:14.494Z,18.78
2018-01-05T13:00:14.442Z,18.81
2018-01-05T13:05:14.360Z,18.79
2018-01-05T13:10:14.374Z,18.86
2018-01-05T13:15:14.218Z,18.87
2018-01-05T13:20:14.136Z,18.72
2018-01-05T13:25:14.063Z,18.69
2018-01-05T13:30:13.992Z,18.65
2018-01-05T13:35:14.019Z,18.56
2018-01-05T13:40:13.890Z,18.57
2018-01-05T13:45:13.794Z,18.44
2018-01-05T13:50:13.696Z,18.44
2018-01-05T13:55:13.627Z,18.61
2018-01-05T14:00:13.541Z,18.66
2018-01-05T14:05:13.472Z,18.71
2018-01-05T14:10:13.411Z,18.68
2018-01-05T14:15:13.342Z,18.6
2018-01-05T14:20:13.068Z,18.39
2018-01-05T14:25:13.188Z,18.32
2018-01-05T14:30:13.122Z,18.27
2018-01-05T14:35:13.039Z,18.35
2018-01-05T14:40:12.988Z,18.54
2018-01-05T14:45:12.901Z,18.72
2018-01-05T14:50:12.833Z,18.75
2018-01-05T14:55:12.883Z,18.72
2018-01-05T15:00:12.676Z,18.72
2018-01-05T15:05:12.620Z,18.76
2018-01-05T15:10:12.600Z,18.71
2018-01-05T15:15:12.485Z,18.56
2018-01-05T15:20:12.545Z,18.65
2018-01-05T15:25:12.398Z,18.54
2018-01-05T15:30:12.250Z,18.49
2018-01-05T15:35:12.183Z,18.53
2018-01-05T15:40:12.108Z,18.44
2018-01-05T15:45:12.073Z,18.56
2018-01-05T15:50:11.967Z,18.61
2018-01-05T15:55:11.893Z,18.72
2018-01-05T16:00:11.826Z,18.78
2018-01-05T16:05:11.743Z,18.76
2018-01-05T16:10:11.676Z,18.66
2018-01-05T16:15:11.627Z,18.78
2018-01-05T16:20:11.558Z,18.71
2018-01-05T16:25:11.502Z,18.76
2018-01-05T16:30:11.466Z,18.76
2018-01-05T16:35:11.339Z,18.74
2018-01-05T16:40:11.256Z,18.69
2018-01-05T16:45:11.175Z,18.56
2018-01-05T16:50:11.136Z,18.53
2018-01-05T16:55:11.053Z,18.81
2018-01-05T17:00:11.111Z,19.07
2018-01-05T17:05:10.908Z,19.37
2018-01-05T17:10:10.857Z,19.6
2018-01-05T17:15:10.766Z,19.68
2018-01-05T17:20:10.700Z,19.74
2018-01-05T17:25:10.648Z,19.75
2018-01-05T17:30:10.555Z,19.75
2018-01-05T17:35:10.498Z,19.7
2018-01-05T17:40:10.426Z,19.63
2018-01-05T17:45:10.368Z,19.6
2018-01-05T17:50:10.372Z,19.67
2018-01-05T17:55:10.236Z,19.67
2018-01-05T18:00:10.142Z,19.63
2018-01-05T18:05:10.090Z,19.67
2018-01-05T18:10:10.020Z,19.64
2018-01-05T18:15:09.950Z,19.55
2018-01-05T18:20:09.904Z,19.46
2018-01-05T18:25:09.842Z,19.47
2018-01-05T18:30:09.750Z,19.56
2018-01-05T18:35:09.689Z,19.63
2018-01-05T18:40:09.739Z,19.67
2018-01-05T18:45:09.560Z,19.72
2018-01-05T18:50:09.498Z,19.74
2018-01-05T18:55:09.432Z,19.56
2018-01-05T19:00:09.402Z,19.57
2018-01-05T19:05:09.285Z,19.53
2018-01-05T19:10:09.319Z,19.64
2018-01-05T19:15:09.247Z,19.72
2018-01-05T19:20:09.089Z,19.67
2018-01-05T19:25:09.037Z,19.64
2018-01-05T19:30:09.030Z,19.7
2018-01-05T19:35:08.899Z,19.8
2018-01-05T19:40:08.834Z,19.82
2018-01-05T19:45:08.847Z,19.87
2018-01-05T19:50:08.729Z,19.89
2018-01-05T19:55:08.655Z,19.83
2018-01-05T20:00:08.551Z,19.83
2018-01-05T20:05:08.514Z,19.82
2018-01-05T20:10:08.424Z,19.78
2018-01-05T20:15:08.359Z,19.98
2018-01-05T20:20:08.296Z,20.07
2018-01-05T20:25:08.244Z,20.08
2018-01-05T20:30:08.162Z,20.1
2018-01-05T20:35:08.104Z,20.1
2018-01-05T20:40:08.268Z,20.1
2018-01-05T20:45:08.108Z,20.08
2018-01-05T20:50:08.048Z,20.04
2018-01-05T20:55:07.873Z,19.98
2018-01-05T21:00:07.803Z,20.11
2018-01-05T21:05:07.740Z,20.19
2018-01-05T21:10:07.703Z,20.1
2018-01-05T21:15:07.327Z,20.15
2018-01-05T21:20:07.527Z,20.19
2018-01-05T21:25:07.463Z,20.19
2018-01-05T21:30:07.564Z,20.29
2018-01-05T21:35:07.335Z,20.27
2018-01-05T21:40:07.248Z,20.38
2018-01-05T21:45:07.183Z,20.38
2018-01-05T21:50:07.146Z,20.27
2018-01-05T21:55:07.168Z,20.32
2018-01-05T22:00:07.005Z,20.27
2018-01-05T22:05:06.949Z,20.22
2018-01-05T22:10:06.875Z,20.26
2018-01-05T22:15:06.802Z,20.25
2018-01-05T22:20:06.748Z,20.26
2018-01-05T22:25:06.736Z,20.19
2018-01-05T22:30:06.644Z,20.18
2018-01-05T22:35:06.569Z,20.1
2018-01-05T22:40:06.484Z,20.04
2018-01-05T22:45:06.426Z,19.98
2018-01-05T22:50:06.375Z,19.97
2018-01-05T22:55:06.290Z,19.95
2018-01-05T23:00:06.210Z,19.79
2018-01-05T23:05:06.140Z,19.82
2018-01-05T23:10:06.090Z,19.83
2018-01-05T23:15:08.090Z,19.72
2018-01-05T23:20:05.957Z,19.65
2018-01-05T23:25:05.897Z,19.57
2018-01-05T23:30:05.820Z,19.43
2018-01-05T23:35:05.754Z,19.32
2018-01-05T23:40:05.687Z,19.3
2018-01-05T23:45:05.674Z,19.24
2018-01-05T23:50:05.570Z,19.17
2018-01-05T23:55:05.480Z,19.13
